Boron, California
Current Conditions -  °F | °C
As of 5:55 AM on Thursday 23 Oct 2014 (Local Time) from K9L2 Reporting Station
Clear Clear  
Wind Chill: 43°   Ceiling: Unl
Heat Index: 43°   Visibility: 10mi
Dew Point: 22°   Wind: 0mph
Humidity: 43%   Direction: NA
Pressure: 30.04"   Gusts: NA
Location:  35°N, 117.65°W
Report Text: K9L2 231255Z AUTO 00000KT 10SM CLR 06/M06 A3004 RMK AO2 SLP167 T00611056 TSNO $
Loading
Personal Weather Stations






























Interactive Weather Map
Tropical Storm Tracking
New forecast layout! Learn more

10-Day Weather Forecast

Advertisements
Track Severe Weather on mobile